Time;durP1;ratioP1;P1;durP2;ratioP2;P2;SDS_P1;SDS_P2;PMS_P1;PMS_P2;Temp;Humidity;BMP_temperature;BMP_pressure;BME280_temperature;BME280_humidity;BME280_pressure;Samples;Min_cycle;Max_cycle;Signal;HPM_P1;HPM_P2
2024/04/11 00:01:19;;;;;;;7.53;3.40;;;15.10;99.90;;;;;;4477094;26;20488;-54
2024/04/11 00:03:21;;;;;;;4.93;3.13;;;15.10;99.90;;;;;;4478486;26;20080;-54
2024/04/11 00:05:22;;;;;;;6.70;3.50;;;15.10;99.90;;;;;;4477121;26;20008;-56
2024/04/11 00:07:23;;;;;;;5.05;3.30;;;15.10;99.90;;;;;;4478028;26;20345;-57
2024/04/11 00:09:24;;;;;;;7.18;2.80;;;15.00;99.90;;;;;;4477424;26;20015;-54
2024/04/11 00:11:26;;;;;;;6.63;3.50;;;15.00;99.90;;;;;;4478067;26;20016;-57
2024/04/11 00:13:27;;;;;;;7.32;3.50;;;15.00;99.90;;;;;;4476696;26;20068;-54
2024/04/11 00:15:28;;;;;;;5.03;3.47;;;15.00;99.90;;;;;;4477808;26;20460;-53
2024/04/11 00:17:30;;;;;;;7.53;3.50;;;15.00;99.90;;;;;;4477253;26;20008;-53
2024/04/11 00:19:31;;;;;;;5.32;3.10;;;15.00;99.90;;;;;;4477394;26;20719;-52
2024/04/11 00:21:32;;;;;;;5.43;3.15;;;15.00;99.90;;;;;;4477512;26;20007;-55
2024/04/11 00:23:33;;;;;;;5.80;3.53;;;14.90;99.90;;;;;;4476815;26;20076;-57
2024/04/11 00:25:35;;;;;;;4.93;3.55;;;14.90;99.90;;;;;;4478413;26;20077;-56
2024/04/11 00:27:36;;;;;;;7.22;3.67;;;14.90;99.90;;;;;;4476911;26;20420;-57
2024/04/11 00:29:38;;;;;;;7.20;3.88;;;14.80;99.90;;;;;;4478304;26;20011;-56
2024/04/11 00:31:39;;;;;;;15.50;4.43;;;14.80;99.90;;;;;;4477546;26;20000;-57
2024/04/11 00:33:54;;;;;;;6.70;3.95;;;14.80;99.90;;;;;;4478768;26;20041;-56
2024/04/11 00:35:59;;;;;;;7.85;4.40;;;14.80;99.90;;;;;;4476767;26;20455;-55
2024/04/11 00:38:01;;;;;;;6.30;3.88;;;14.80;99.90;;;;;;4478317;26;20071;-55
2024/04/11 00:40:03;;;;;;;5.82;3.85;;;14.80;99.90;;;;;;4476943;26;20004;-56
2024/04/11 00:42:07;;;;;;;6.97;3.42;;;14.80;99.90;;;;;;4478082;26;20012;-56
2024/04/11 00:44:08;;;;;;;10.60;4.07;;;14.80;99.90;;;;;;4476517;26;20353;-55
2024/04/11 00:46:10;;;;;;;6.40;4.15;;;14.80;99.90;;;;;;4477813;26;20016;-55
2024/04/11 00:48:11;;;;;;;7.35;3.90;;;14.70;99.90;;;;;;4477110;26;20026;-56
2024/04/11 00:50:13;;;;;;;7.88;4.65;;;14.70;99.90;;;;;;4477908;26;20076;-56
2024/04/11 00:52:15;;;;;;;9.68;4.10;;;14.70;99.90;;;;;;4477084;26;20482;-57
2024/04/11 00:54:19;;;;;;;8.13;4.63;;;14.70;99.90;;;;;;4477488;26;20015;-52
2024/04/11 00:56:20;;;;;;;8.13;4.25;;;14.60;99.90;;;;;;4477544;26;20015;-56
2024/04/11 00:58:24;;;;;;;11.82;4.55;;;14.60;99.90;;;;;;4476822;26;20347;-52
2024/04/11 01:00:27;;;;;;;12.52;4.53;;;14.60;99.90;;;;;;4476941;26;20076;-58
2024/04/11 01:02:28;;;;;;;10.68;5.07;;;14.50;99.90;;;;;;4475658;26;19999;-54
2024/04/11 01:04:30;;;;;;;7.53;4.25;;;14.50;99.90;;;;;;4477367;26;20012;-50
2024/04/11 01:09:07;;;;;;;8.35;4.70;;;14.40;99.90;;;;;;4478267;26;20072;-57
2024/04/11 01:11:09;;;;;;;7.40;4.47;;;14.30;99.90;;;;;;4479330;26;20011;-55
2024/04/11 01:13:10;;;;;;;9.60;4.90;;;14.20;99.90;;;;;;4480431;26;20492;-56
2024/04/11 01:15:12;;;;;;;9.73;5.13;;;14.10;99.90;;;;;;4479734;26;20015;-52
2024/04/11 01:17:14;;;;;;;9.00;4.80;;;14.10;99.90;;;;;;4480315;26;20015;-56
2024/04/11 01:19:15;;;;;;;7.77;4.57;;;14.10;99.90;;;;;;4478464;26;20076;-57
2024/04/11 01:21:16;;;;;;;8.57;4.87;;;14.10;99.90;;;;;;4479867;26;20011;-57
2024/04/11 01:23:17;;;;;;;10.37;5.07;;;14.00;99.90;;;;;;4478898;26;20072;-51
2024/04/11 01:25:19;;;;;;;12.23;4.73;;;14.00;99.90;;;;;;4480656;26;20011;-55
2024/04/11 01:27:21;;;;;;;7.43;4.70;;;13.90;99.90;;;;;;4479698;26;20045;-52
2024/04/11 01:29:22;;;;;;;10.60;5.20;;;13.90;99.90;;;;;;4480481;26;20019;-50
2024/04/11 01:31:24;;;;;;;7.73;4.60;;;13.90;99.90;;;;;;4478922;26;20471;-54
2024/04/11 01:33:25;;;;;;;11.03;4.83;;;13.80;99.90;;;;;;4479805;26;20003;-57
2024/04/11 01:35:30;;;;;;;10.63;4.83;;;13.80;99.90;;;;;;4479871;26;20523;-56
2024/04/11 01:37:32;;;;;;;8.67;4.87;;;13.70;99.90;;;;;;4479403;26;20008;-55
2024/04/11 01:39:33;;;;;;;13.10;5.37;;;13.70;99.90;;;;;;4480242;26;20072;-55
2024/04/11 01:41:37;;;;;;;7.83;5.10;;;13.70;99.90;;;;;;4479734;26;20072;-53
2024/04/11 01:43:38;;;;;;;10.37;4.53;;;13.60;99.90;;;;;;4480002;26;20000;-56
2024/04/11 01:45:41;;;;;;;11.40;5.07;;;13.60;99.90;;;;;;4478899;26;20007;-56
2024/04/11 01:47:42;;;;;;;8.93;5.50;;;13.60;99.90;;;;;;4479432;26;20091;-56
2024/04/11 01:49:44;;;;;;;8.97;5.10;;;13.60;99.90;;;;;;4478920;26;20076;-57
2024/04/11 01:51:45;;;;;;;10.50;5.53;;;13.50;99.90;;;;;;4480318;26;20053;-55
2024/04/11 01:53:46;;;;;;;11.27;5.43;;;13.50;99.90;;;;;;4478624;26;20905;-54
2024/04/11 01:55:47;;;;;;;12.03;5.67;;;13.50;99.90;;;;;;4480378;26;20041;-54
2024/04/11 01:57:49;;;;;;;8.70;5.40;;;13.50;99.90;;;;;;4478652;26;20076;-54
2024/04/11 01:59:53;;;;;;;9.80;5.90;;;13.50;99.90;;;;;;4479386;26;20037;-55
2024/04/11 02:01:56;;;;;;;12.07;6.77;;;13.40;99.90;;;;;;4478434;26;20076;-56
2024/04/11 02:03:57;;;;;;;10.53;5.47;;;13.40;99.90;;;;;;4479817;26;20320;-57
2024/04/11 02:06:03;;;;;;;9.57;5.43;;;13.40;99.90;;;;;;4479115;26;20076;-56
2024/04/11 02:08:06;;;;;;;12.47;5.80;;;13.30;99.90;;;;;;4479847;26;20533;-56
2024/04/11 02:10:07;;;;;;;9.83;5.43;;;13.30;99.90;;;;;;4478862;26;20019;-56
2024/04/11 02:12:08;;;;;;;9.43;5.63;;;13.30;99.90;;;;;;4479747;26;20007;-55
2024/04/11 02:14:10;;;;;;;11.57;5.90;;;13.20;99.90;;;;;;4478879;26;20003;-51
2024/04/11 02:16:13;;;;;;;12.43;6.20;;;13.20;99.90;;;;;;4478309;26;20078;-57
2024/04/11 02:18:14;;;;;;;10.80;6.23;;;13.20;99.90;;;;;;4479929;26;20015;-53
2024/04/11 02:20:16;;;;;;;10.03;5.77;;;13.10;99.90;;;;;;4477734;26;20444;-54
2024/04/11 02:22:18;;;;;;;12.93;7.33;;;13.10;99.90;;;;;;4479904;26;20023;-53
2024/04/11 02:24:22;;;;;;;12.77;6.20;;;13.10;99.90;;;;;;4478482;26;20015;-53
2024/04/11 02:26:24;;;;;;;14.63;6.00;;;13.00;99.90;;;;;;4479829;26;20130;-52
2024/04/11 02:28:26;;;;;;;9.53;5.97;;;13.00;99.90;;;;;;4478708;26;20067;-51
2024/04/11 02:30:27;;;;;;;9.27;6.00;;;13.00;99.90;;;;;;4479180;26;20015;-55
2024/04/11 02:32:30;;;;;;;12.97;6.40;;;13.00;99.90;;;;;;4479012;26;20004;-52
2024/04/11 02:34:32;;;;;;;13.33;5.40;;;13.00;99.90;;;;;;4480020;26;20083;-56
2024/04/11 02:36:34;;;;;;;10.30;5.70;;;13.00;99.90;;;;;;4478726;26;20015;-53
2024/04/11 02:38:36;;;;;;;7.60;5.50;;;13.00;99.90;;;;;;4480197;26;20087;-56
2024/04/11 02:40:37;;;;;;;9.03;5.50;;;13.00;99.90;;;;;;4478387;26;20076;-57
2024/04/11 02:42:38;;;;;;;6.97;5.30;;;13.00;99.90;;;;;;4479489;26;20045;-58
2024/04/11 02:44:40;;;;;;;10.70;5.47;;;13.10;99.90;;;;;;4478126;26;20015;-60
2024/04/11 02:46:41;;;;;;;12.13;5.40;;;13.10;99.90;;;;;;4479174;26;20075;-55
2024/04/11 02:48:46;;;;;;;8.77;5.53;;;13.10;99.90;;;;;;4478589;26;20076;-56
2024/04/11 02:50:49;;;;;;;8.30;5.07;;;13.00;99.90;;;;;;4478473;26;20011;-55
2024/04/11 02:52:51;;;;;;;8.73;5.40;;;13.10;99.90;;;;;;4478683;26;20077;-59
2024/04/11 02:54:53;;;;;;;8.90;5.10;;;13.10;99.90;;;;;;4478479;26;20000;-56
2024/04/11 02:56:54;;;;;;;10.80;5.40;;;13.10;99.90;;;;;;4476950;26;20136;-56
2024/04/11 02:58:56;;;;;;;10.73;5.77;;;13.10;99.90;;;;;;4477203;26;20079;-57
2024/04/11 03:01:01;;;;;;;8.37;5.90;;;13.10;99.90;;;;;;4479779;26;20045;-52
2024/04/11 03:03:02;;;;;;;10.17;6.00;;;13.00;99.90;;;;;;4477651;26;20414;-56
2024/04/11 03:05:05;;;;;;;10.67;7.00;;;13.00;99.90;;;;;;4479111;26;20007;-53
2024/04/11 03:07:07;;;;;;;8.00;5.53;;;12.90;99.90;;;;;;4478498;26;20015;-52
2024/04/11 03:09:09;;;;;;;8.80;5.93;;;12.90;99.90;;;;;;4478967;26;20080;-52
2024/04/11 03:11:11;;;;;;;9.73;6.00;;;12.90;99.90;;;;;;4477571;26;20075;-53
2024/04/11 03:13:13;;;;;;;13.00;6.40;;;12.80;99.90;;;;;;4478396;26;20001;-55
2024/04/11 03:15:18;;;;;;;9.83;6.03;;;12.80;99.90;;;;;;4477312;26;20532;-59
2024/04/11 03:17:19;;;;;;;11.27;6.87;;;12.70;99.90;;;;;;4478537;26;20075;-55
2024/04/11 03:19:21;;;;;;;14.20;6.10;;;12.70;99.90;;;;;;4478273;26;20079;-55
2024/04/11 03:21:22;;;;;;;8.80;6.30;;;12.70;99.90;;;;;;4478121;26;20053;-55
2024/04/11 03:23:26;;;;;;;9.83;5.50;;;12.70;99.90;;;;;;4477863;26;19999;-57
2024/04/11 03:25:30;;;;;;;12.77;5.60;;;12.70;99.90;;;;;;4478255;26;20007;-55
2024/04/11 03:27:32;;;;;;;14.03;6.37;;;12.60;99.90;;;;;;4478875;26;20095;-56
2024/04/11 03:29:34;;;;;;;17.83;7.07;;;12.50;99.90;;;;;;4477408;26;20467;-53
2024/04/11 03:31:35;;;;;;;10.50;6.10;;;12.50;99.90;;;;;;4474683;26;20145;-56
2024/04/11 03:33:37;;;;;;;13.47;6.70;;;12.50;99.90;;;;;;4476609;26;20072;-54
2024/04/11 03:35:38;;;;;;;17.30;7.77;;;12.40;99.90;;;;;;4478662;26;20015;-57
2024/04/11 03:37:39;;;;;;;11.53;6.93;;;12.40;99.90;;;;;;4458941;26;20086;-51
2024/04/11 03:39:43;;;;;;;10.17;6.37;;;12.40;99.90;;;;;;4476914;26;20015;-56
2024/04/11 03:41:45;;;;;;;10.47;7.00;;;12.40;99.90;;;;;;4476494;26;20096;-57
2024/04/11 03:43:56;;;;;;;10.53;6.53;;;12.50;99.90;;;;;;4478038;26;20084;-57
2024/04/11 03:46:09;;;;;;;15.13;6.20;;;12.50;99.90;;;;;;4476257;26;20003;-56
2024/04/11 03:48:10;;;;;;;10.53;7.07;;;12.40;99.90;;;;;;4476382;26;20004;-55
2024/04/11 03:50:11;;;;;;;18.10;6.87;;;12.50;99.90;;;;;;4477155;26;20465;-55
2024/04/11 03:52:16;;;;;;;11.63;6.17;;;12.40;99.90;;;;;;4480442;26;20080;-60
2024/04/11 03:54:17;;;;;;;12.87;6.20;;;12.40;99.90;;;;;;4476600;26;20011;-55
2024/04/11 03:56:21;;;;;;;9.00;5.40;;;12.40;99.90;;;;;;4478009;26;20012;-56
2024/04/11 03:58:25;;;;;;;12.43;5.93;;;12.50;99.90;;;;;;4476725;26;20003;-57
2024/04/11 04:00:26;;;;;;;11.90;5.83;;;12.50;99.90;;;;;;4478187;26;20011;-54
2024/04/11 04:02:27;;;;;;;14.73;5.87;;;12.50;99.90;;;;;;4477012;26;20019;-57
2024/04/11 04:04:28;;;;;;;14.53;5.43;;;12.60;99.90;;;;;;4477214;26;20015;-54
2024/04/11 04:06:31;;;;;;;11.83;5.90;;;12.80;99.90;;;;;;4476903;26;20478;-57
2024/04/11 04:08:33;;;;;;;11.87;5.93;;;13.00;99.90;;;;;;4476410;26;20079;-53
2024/04/11 04:10:35;;;;;;;11.87;6.90;;;13.00;99.90;;;;;;4477267;26;20088;-57
2024/04/11 04:12:36;;;;;;;13.63;7.30;;;13.10;99.90;;;;;;4476203;26;20019;-56
2024/04/11 04:14:38;;;;;;;11.50;6.90;;;13.10;99.90;;;;;;4478145;26;20011;-57
2024/04/11 04:16:39;;;;;;;14.50;7.30;;;13.00;99.90;;;;;;4474390;26;20358;-56
2024/04/11 04:18:45;;;;;;;12.07;7.60;;;13.00;99.90;;;;;;4477743;26;20080;-58
2024/04/11 04:20:57;;;;;;;16.53;8.53;;;13.00;99.90;;;;;;4476800;26;20007;-53
2024/04/11 04:22:58;;;;;;;13.23;7.57;;;13.10;99.90;;;;;;4477469;26;20007;-58
2024/04/11 04:25:00;;;;;;;15.53;7.33;;;13.20;99.90;;;;;;4476953;26;20099;-55
2024/04/11 04:27:04;;;;;;;12.70;7.73;;;13.30;99.90;;;;;;4477517;26;20064;-54
2024/04/11 04:29:05;;;;;;;16.43;7.83;;;13.30;99.90;;;;;;4476113;26;20072;-57
2024/04/11 04:31:16;;;;;;;10.77;7.50;;;13.60;99.90;;;;;;4477703;26;20011;-56
2024/04/11 04:33:17;;;;;;;18.37;8.27;;;13.80;99.90;;;;;;4476502;26;20008;-57
2024/04/11 04:35:19;;;;;;;21.00;8.80;;;13.90;99.90;;;;;;4477735;26;20011;-54
2024/04/11 04:37:21;;;;;;;16.10;7.90;;;14.20;99.90;;;;;;4475322;26;20080;-60
2024/04/11 04:39:30;;;;;;;15.97;7.30;;;14.60;99.90;;;;;;4476745;26;20007;-57
2024/04/11 04:41:34;;;;;;;17.60;7.97;;;14.90;99.90;;;;;;4476504;26;20073;-55
2024/04/11 04:43:35;;;;;;;15.80;7.65;;;15.20;99.90;;;;;;4479496;26;20011;-53
2024/04/11 04:45:36;;;;;;;15.98;7.38;;;15.60;99.90;;;;;;4479521;26;20015;-57
2024/04/11 04:47:40;;;;;;;15.25;7.50;;;16.10;99.90;;;;;;4478997;26;20526;-56
2024/04/11 04:49:45;;;;;;;14.82;8.00;;;16.50;99.90;;;;;;4479998;26;20848;-55
2024/04/11 04:51:47;;;;;;;17.80;7.28;;;16.90;99.90;;;;;;4479410;26;20015;-58
2024/04/11 04:53:54;;;;;;;15.20;7.30;;;17.30;99.90;;;;;;4479774;26;20080;-50
2024/04/11 04:55:56;;;;;;;14.80;7.07;;;17.70;99.90;;;;;;4477174;26;20560;-54
2024/04/11 04:57:57;;;;;;;16.35;6.45;;;18.10;99.90;;;;;;4479112;26;20015;-49
2024/04/11 05:00:00;;;;;;;12.00;5.72;;;18.60;99.90;;;;;;4478532;26;20079;-54
2024/04/11 05:02:03;;;;;;;10.73;6.13;;;19.00;99.90;;;;;;4480119;26;20056;-57
2024/04/11 05:04:05;;;;;;;10.07;5.53;;;19.30;99.90;;;;;;4479292;26;20399;-48
2024/04/11 05:06:12;;;;;;;12.82;5.75;;;19.50;99.90;;;;;;4479983;26;20084;-56
2024/04/11 05:08:14;;;;;;;9.32;4.75;;;19.70;99.90;;;;;;4478377;26;20004;-57
2024/04/11 05:10:15;;;;;;;11.52;4.55;;;19.90;99.90;;;;;;4480129;26;20011;-55
2024/04/11 05:12:19;;;;;;;12.48;5.93;;;20.10;99.90;;;;;;4478925;26;20076;-57
2024/04/11 05:14:20;;;;;;;10.43;4.72;;;20.40;99.90;;;;;;4480013;26;20072;-57
2024/04/11 05:16:21;;;;;;;15.57;5.72;;;20.80;99.90;;;;;;4479376;26;20011;-56
2024/04/11 05:18:23;;;;;;;10.73;5.53;;;21.30;99.90;;;;;;4480017;26;20011;-54
2024/04/11 05:20:27;;;;;;;10.88;5.22;;;21.90;99.90;;;;;;4478846;26;20088;-52
2024/04/11 05:22:28;;;;;;;12.70;5.03;;;22.20;99.90;;;;;;4479125;26;20007;-56
2024/04/11 05:24:30;;;;;;;10.82;5.18;;;22.80;99.90;;;;;;4479103;26;20079;-55
2024/04/11 05:26:31;;;;;;;9.57;5.25;;;23.10;99.50;;;;;;4479158;26;20401;-57
2024/04/11 05:28:36;;;;;;;12.57;4.47;;;23.60;98.60;;;;;;4479211;26;20456;-56
2024/04/11 05:30:40;;;;;;;9.57;3.92;;;23.90;97.60;;;;;;4478223;26;20096;-58
2024/04/11 05:32:46;;;;;;;10.52;4.10;;;23.90;96.90;;;;;;4479665;26;20072;-58
2024/04/11 05:34:49;;;;;;;8.35;4.85;;;23.70;96.60;;;;;;4479068;26;20071;-57
2024/04/11 05:36:51;;;;;;;10.95;4.70;;;23.30;96.40;;;;;;4479850;26;20011;-58
2024/04/11 05:38:52;;;;;;;12.27;4.88;;;23.30;96.50;;;;;;4477753;26;20015;-55
2024/04/11 05:40:54;;;;;;;8.68;4.90;;;23.30;96.20;;;;;;4475709;26;20862;-57
2024/04/11 05:42:55;;;;;;;13.90;5.80;;;23.30;96.20;;;;;;4466057;26;20512;-58
2024/04/11 05:44:57;;;;;;;8.52;5.20;;;23.30;96.00;;;;;;4470323;26;20011;-57
2024/04/11 05:46:58;;;;;;;8.50;6.15;;;23.40;95.80;;;;;;4467638;26;20084;-57
2024/04/11 05:48:59;;;;;;;10.40;5.75;;;23.70;95.60;;;;;;4469362;26;20104;-55
2024/04/11 05:51:05;;;;;;;14.98;6.13;;;23.80;95.20;;;;;;4477037;26;20972;-56
2024/04/11 05:53:08;;;;;;;12.20;5.85;;;23.80;95.20;;;;;;4478995;26;20015;-56
2024/04/11 05:55:12;;;;;;;10.00;5.45;;;24.00;95.00;;;;;;4474824;26;20019;-56
2024/04/11 05:57:14;;;;;;;8.35;4.95;;;24.20;94.70;;;;;;4479154;26;20084;-57
2024/04/11 05:59:15;;;;;;;12.52;5.82;;;24.70;94.40;;;;;;4477958;26;20003;-57
2024/04/11 06:01:16;;;;;;;17.60;6.22;;;25.40;93.70;;;;;;4477805;26;20369;-56
2024/04/11 06:03:18;;;;;;;9.95;5.35;;;25.70;93.10;;;;;;4478256;26;20007;-53
2024/04/11 06:05:20;;;;;;;12.80;5.40;;;25.70;92.50;;;;;;4477056;26;20015;-54
2024/04/11 06:07:21;;;;;;;13.70;4.97;;;25.60;92.50;;;;;;4479163;26;20015;-54
2024/04/11 06:09:23;;;;;;;12.70;6.53;;;25.40;92.40;;;;;;4477555;26;20075;-56
2024/04/11 06:11:24;;;;;;;8.98;4.80;;;25.10;92.50;;;;;;4478049;26;20080;-57
2024/04/11 06:13:27;;;;;;;8.63;4.88;;;25.20;92.50;;;;;;4477055;26;20011;-56
2024/04/11 06:15:29;;;;;;;16.63;6.10;;;25.40;92.20;;;;;;4463682;26;20020;-56
2024/04/11 06:17:30;;;;;;;13.52;5.78;;;25.80;91.90;;;;;;4448765;26;20050;-52
2024/04/11 06:19:35;;;;;;;12.88;5.10;;;25.80;91.40;;;;;;4465005;26;20019;-55
2024/04/11 06:21:45;;;;;;;10.30;5.63;;;24.60;91.90;;;;;;4477744;26;20545;-55
2024/04/11 06:23:46;;;;;;;13.40;6.40;;;23.70;93.00;;;;;;4478922;26;20413;-55
2024/04/11 06:25:47;;;;;;;11.15;6.07;;;23.30;93.80;;;;;;4478611;26;20075;-56
2024/04/11 06:27:50;;;;;;;18.52;8.15;;;23.90;93.50;;;;;;4477842;26;20003;-52
2024/04/11 06:29:52;;;;;;;11.70;6.30;;;24.10;93.20;;;;;;4477551;26;20004;-51
2024/04/11 06:31:53;;;;;;;11.80;6.75;;;23.80;93.20;;;;;;4478050;26;20019;-55
2024/04/11 06:33:55;;;;;;;20.88;7.68;;;24.10;93.30;;;;;;4478530;26;20015;-57
2024/04/11 06:35:58;;;;;;;15.88;6.55;;;24.50;93.00;;;;;;4472303;26;20003;-56
2024/04/11 06:37:59;;;;;;;21.13;7.90;;;25.00;92.50;;;;;;4477523;26;20020;-57
2024/04/11 06:40:11;;;;;;;15.63;7.75;;;24.90;92.10;;;;;;4476953;26;20079;-56
2024/04/11 06:42:17;;;;;;;20.60;8.02;;;24.80;92.20;;;;;;4475900;26;20091;-57
2024/04/11 06:44:18;;;;;;;20.75;7.72;;;24.80;92.20;;;;;;4476591;26;20100;-57
2024/04/11 06:46:19;;;;;;;23.25;8.45;;;24.50;92.30;;;;;;4479408;26;20075;-56
2024/04/11 06:48:21;;;;;;;21.15;6.95;;;24.60;92.60;;;;;;4476493;26;20015;-57
2024/04/11 06:50:23;;;;;;;17.50;6.70;;;24.50;92.40;;;;;;4478065;26;20075;-53
2024/04/11 06:52:24;;;;;;;16.00;6.75;;;23.70;92.90;;;;;;4475912;26;19999;-53
2024/04/11 06:54:28;;;;;;;15.35;6.22;;;23.50;93.50;;;;;;4478416;26;20011;-55
2024/04/11 06:56:30;;;;;;;19.52;5.95;;;23.70;93.60;;;;;;4477509;26;20023;-54
2024/04/11 06:58:32;;;;;;;8.98;5.07;;;22.90;93.80;;;;;;4478397;26;20015;-54
2024/04/11 07:00:36;;;;;;;9.88;5.15;;;22.60;94.30;;;;;;4474548;26;20203;-53
2024/04/11 07:02:41;;;;;;;10.35;4.95;;;22.30;94.70;;;;;;4477764;26;20072;-52
2024/04/11 07:04:44;;;;;;;9.38;5.32;;;22.40;95.10;;;;;;4477288;26;20015;-55
2024/04/11 07:06:48;;;;;;;9.43;5.55;;;23.10;94.60;;;;;;4477409;26;20397;-58
2024/04/11 07:08:54;;;;;;;11.52;5.85;;;23.60;94.10;;;;;;4477589;26;20015;-56
2024/04/11 07:11:12;;;;;;;12.23;5.50;;;24.10;93.60;;;;;;4477664;26;20012;-56
2024/04/11 07:13:14;;;;;;;15.60;6.00;;;24.80;93.10;;;;;;4477120;26;20089;-56
2024/04/11 07:15:18;;;;;;;14.93;6.13;;;25.30;92.60;;;;;;4478567;26;20092;-57
2024/04/11 07:17:20;;;;;;;16.33;5.88;;;25.50;92.30;;;;;;4478484;26;19999;-57
2024/04/11 07:19:21;;;;;;;21.98;6.93;;;25.50;92.20;;;;;;4478490;26;20003;-55
2024/04/11 07:21:34;;;;;;;9.95;5.82;;;25.60;92.10;;;;;;4478182;26;20439;-52
2024/04/11 07:23:35;;;;;;;14.30;7.68;;;25.90;91.80;;;;;;4477776;26;20007;-52
2024/04/11 07:25:36;;;;;;;13.10;6.35;;;25.40;91.70;;;;;;4478718;26;19999;-56
2024/04/11 07:27:40;;;;;;;13.15;6.03;;;24.30;92.40;;;;;;4476971;26;20496;-54
2024/04/11 07:29:41;;;;;;;8.77;5.38;;;23.60;93.20;;;;;;4477959;26;20088;-54
2024/04/11 07:31:42;;;;;;;12.68;6.30;;;23.50;93.50;;;;;;4476499;26;20019;-56
2024/04/11 07:33:48;;;;;;;10.88;5.47;;;23.90;93.40;;;;;;4479054;26;20075;-56
2024/04/11 07:35:49;;;;;;;14.45;5.50;;;24.40;93.10;;;;;;4476948;26;21020;-55
2024/04/11 07:37:51;;;;;;;10.35;6.05;;;24.90;92.80;;;;;;4477266;26;20451;-52
2024/04/11 07:39:53;;;;;;;13.75;6.07;;;25.10;92.40;;;;;;4476735;26;20420;-52
2024/04/11 07:42:18;;;;;;;14.88;6.28;;;25.00;92.30;;;;;;4478122;26;20408;-56
2024/04/11 07:44:22;;;;;;;14.50;5.85;;;25.00;92.30;;;;;;4475293;26;20083;-54
2024/04/11 07:46:33;;;;;;;12.70;5.30;;;24.40;92.50;;;;;;4477200;26;20015;-54
2024/04/11 07:48:35;;;;;;;13.70;5.40;;;24.20;92.80;;;;;;4477107;26;20015;-56
2024/04/11 07:50:37;;;;;;;10.30;4.90;;;23.80;93.10;;;;;;4478103;26;20492;-53
2024/04/11 07:52:38;;;;;;;10.32;5.18;;;23.50;93.10;;;;;;4476705;26;20003;-53
2024/04/11 07:54:43;;;;;;;9.70;5.65;;;23.20;93.40;;;;;;4477864;26;20015;-53
2024/04/11 07:56:45;;;;;;;7.22;5.20;;;22.90;93.60;;;;;;4474247;26;20023;-57
2024/04/11 07:58:51;;;;;;;11.43;5.43;;;22.80;93.80;;;;;;4477057;26;20352;-57
2024/04/11 08:00:54;;;;;;;8.40;4.90;;;22.90;94.20;;;;;;4476698;26;20112;-57
2024/04/11 08:03:00;;;;;;;10.75;4.32;;;23.20;94.00;;;;;;4476872;26;20079;-54
2024/04/11 08:05:04;;;;;;;14.65;5.15;;;23.40;93.90;;;;;;4476859;26;20053;-57
2024/04/11 08:07:05;;;;;;;8.57;4.97;;;23.50;93.70;;;;;;4477794;26;20152;-52
2024/04/11 08:09:07;;;;;;;10.38;5.40;;;23.00;94.00;;;;;;4476338;26;20072;-59
2024/04/11 08:11:10;;;;;;;8.50;5.35;;;22.60;94.40;;;;;;4476788;26;20454;-56
2024/04/11 08:13:11;;;;;;;9.65;4.75;;;22.10;95.10;;;;;;4479693;26;20015;-58
2024/04/11 08:15:14;;;;;;;6.82;3.95;;;22.00;95.40;;;;;;4476531;26;20475;-54
2024/04/11 08:17:16;;;;;;;12.05;4.80;;;22.30;95.40;;;;;;4478389;26;20015;-57
2024/04/11 08:19:17;;;;;;;9.00;4.70;;;21.80;95.50;;;;;;4476661;26;20444;-58
2024/04/11 08:21:20;;;;;;;11.35;4.35;;;21.40;96.20;;;;;;4478331;26;20011;-56
2024/04/11 08:23:24;;;;;;;12.80;5.30;;;21.40;96.40;;;;;;4476329;26;20558;-55
2024/04/11 08:25:25;;;;;;;10.40;4.90;;;21.20;96.50;;;;;;4478539;26;20148;-58
2024/04/11 08:27:27;;;;;;;12.30;5.65;;;21.10;96.70;;;;;;4476898;26;20087;-57
2024/04/11 08:29:29;;;;;;;9.07;4.88;;;21.10;96.80;;;;;;4474974;26;20057;-52
2024/04/11 08:31:30;;;;;;;9.77;5.13;;;21.00;96.90;;;;;;4474945;26;20054;-55
2024/04/11 08:33:35;;;;;;;14.95;5.57;;;21.10;97.00;;;;;;4474722;26;20003;-52
2024/04/11 08:35:36;;;;;;;11.07;5.90;;;21.10;97.10;;;;;;4465282;26;20689;-55
2024/04/11 08:37:38;;;;;;;12.63;5.13;;;21.20;97.20;;;;;;4478028;26;20015;-54
2024/04/11 08:39:40;;;;;;;14.93;5.88;;;21.30;97.10;;;;;;4476388;26;20004;-52
2024/04/11 08:41:42;;;;;;;11.50;6.43;;;21.20;97.20;;;;;;4476967;26;20410;-54
2024/04/11 08:43:45;;;;;;;12.10;5.78;;;21.20;97.40;;;;;;4477326;26;20007;-57
2024/04/11 08:45:46;;;;;;;14.93;5.47;;;21.20;97.40;;;;;;4476667;26;20073;-55
2024/04/11 08:47:48;;;;;;;13.93;5.78;;;21.30;97.30;;;;;;4476055;26;20080;-57
2024/04/11 08:49:49;;;;;;;10.25;5.28;;;21.50;97.20;;;;;;4476431;26;20015;-56
2024/04/11 08:51:51;;;;;;;9.25;5.90;;;21.50;97.10;;;;;;4477219;26;20435;-57
2024/04/11 08:53:56;;;;;;;13.20;5.10;;;21.60;97.10;;;;;;4475552;26;20396;-58
2024/04/11 08:55:59;;;;;;;28.10;7.50;;;21.60;96.90;;;;;;4477239;26;20007;-58
2024/04/11 08:58:02;;;;;;;13.32;5.65;;;21.70;96.90;;;;;;4476180;26;20015;-54
2024/04/11 09:00:09;;;;;;;8.18;5.13;;;21.70;96.80;;;;;;4471112;26;20008;-57
2024/04/11 09:02:10;;;;;;;9.43;4.88;;;21.90;96.60;;;;;;4469025;26;20057;-54
2024/04/11 09:04:11;;;;;;;11.13;4.68;;;22.00;96.30;;;;;;4477094;26;20015;-55
2024/04/11 09:06:13;;;;;;;7.05;4.95;;;21.90;96.00;;;;;;4475976;26;20404;-57
2024/04/11 09:08:18;;;;;;;14.13;4.80;;;22.00;96.00;;;;;;4477053;26;20004;-55
2024/04/11 09:10:20;;;;;;;10.90;5.65;;;22.10;95.80;;;;;;4476094;26;20084;-57
2024/04/11 09:12:22;;;;;;;13.70;4.63;;;22.20;95.70;;;;;;4477054;26;20004;-57
2024/04/11 09:14:23;;;;;;;14.82;6.18;;;22.00;95.60;;;;;;4451165;26;20008;-56
2024/04/11 09:16:27;;;;;;;11.27;5.57;;;21.90;95.80;;;;;;4447912;26;20016;-58
2024/04/11 09:18:29;;;;;;;9.45;4.80;;;22.00;95.80;;;;;;4472246;26;20015;-56
2024/04/11 09:20:32;;;;;;;7.78;5.00;;;22.10;95.80;;;;;;4476622;26;20080;-57
2024/04/11 09:22:34;;;;;;;9.88;4.55;;;22.10;95.40;;;;;;4475923;26;20019;-56
2024/04/11 09:24:38;;;;;;;7.15;4.88;;;22.10;95.40;;;;;;4475699;26;20003;-56
2024/04/11 09:26:43;;;;;;;9.10;4.80;;;22.20;95.30;;;;;;4476859;26;20084;-58
2024/04/11 09:28:45;;;;;;;5.63;3.90;;;22.20;95.20;;;;;;4475730;26;20356;-56
2024/04/11 09:30:47;;;;;;;10.00;4.30;;;22.20;95.10;;;;;;4469338;26;20016;-56
2024/04/11 09:32:49;;;;;;;6.32;3.85;;;22.30;94.90;;;;;;4478403;26;20088;-57
2024/04/11 09:34:56;;;;;;;7.03;3.88;;;22.40;94.70;;;;;;4479450;26;20003;-56
2024/04/11 09:37:04;;;;;;;8.00;3.60;;;22.50;94.50;;;;;;4478516;26;20393;-53
2024/04/11 09:39:12;;;;;;;11.88;3.92;;;22.50;94.40;;;;;;4480315;26;20088;-56
2024/04/11 09:41:13;;;;;;;10.25;4.47;;;22.80;94.30;;;;;;4478097;26;20385;-56
2024/04/11 09:43:17;;;;;;;11.80;4.65;;;22.80;94.00;;;;;;4479736;26;20016;-52
2024/04/11 09:45:22;;;;;;;10.73;3.80;;;22.90;93.80;;;;;;4477994;26;20003;-55
2024/04/11 09:47:31;;;;;;;6.13;3.33;;;22.90;93.50;;;;;;4476384;26;20080;-54
2024/04/11 09:49:34;;;;;;;13.40;3.80;;;22.90;93.10;;;;;;4476591;26;20015;-56
2024/04/11 09:51:41;;;;;;;7.43;3.03;;;22.80;92.50;;;;;;4479457;26;20060;-53
2024/04/11 09:53:42;;;;;;;9.07;3.92;;;22.80;92.50;;;;;;4478839;26;20015;-55
2024/04/11 09:55:44;;;;;;;6.70;3.47;;;22.70;92.20;;;;;;4479869;26;20003;-56
2024/04/11 09:57:46;;;;;;;9.30;3.10;;;22.70;92.20;;;;;;4478393;26;20057;-56
2024/04/11 09:59:48;;;;;;;8.75;3.03;;;23.00;92.00;;;;;;4479521;26;20015;-57
2024/04/11 10:01:50;;;;;;;9.10;3.53;;;23.00;91.60;;;;;;4478267;26;20015;-57
2024/04/11 10:03:57;;;;;;;11.07;3.55;;;22.90;91.60;;;;;;4479544;26;20075;-55
2024/04/11 10:06:01;;;;;;;6.70;3.10;;;23.00;91.50;;;;;;4479295;26;20079;-55
2024/04/11 10:08:03;;;;;;;8.57;2.92;;;23.20;91.30;;;;;;4463738;26;20460;-54
2024/04/11 10:10:06;;;;;;;7.15;3.15;;;23.30;91.00;;;;;;4452597;26;20081;-57
2024/04/11 10:12:11;;;;;;;8.55;2.70;;;23.30;90.90;;;;;;4473313;26;20083;-56
2024/04/11 10:14:22;;;;;;;7.65;2.65;;;23.30;90.70;;;;;;4478243;26;20083;-51
2024/04/11 10:16:31;;;;;;;7.28;2.85;;;23.50;90.70;;;;;;4477427;26;20007;-54
2024/04/11 10:18:41;;;;;;;6.20;2.60;;;23.60;90.30;;;;;;4479322;26;20573;-56
2024/04/11 10:21:02;;;;;;;4.55;2.53;;;23.50;90.10;;;;;;4476975;26;20656;-56
2024/04/11 10:23:03;;;;;;;5.50;2.72;;;23.60;88.90;;;;;;4451376;26;20054;-55
2024/04/11 10:25:06;;;;;;;4.45;2.22;;;23.60;89.30;;;;;;4450117;26;20495;-56
2024/04/11 10:27:17;;;;;;;2.40;1.92;;;23.60;88.00;;;;;;4455117;26;20508;-57
2024/04/11 10:29:20;;;;;;;3.75;2.00;;;23.70;86.70;;;;;;4476148;26;20080;-57
2024/04/11 10:31:25;;;;;;;4.28;2.55;;;23.70;86.00;;;;;;4478577;26;20087;-55
2024/04/11 10:33:29;;;;;;;3.42;2.03;;;23.90;85.70;;;;;;4477507;26;20433;-54
2024/04/11 10:35:33;;;;;;;6.00;1.70;;;23.90;85.30;;;;;;4479113;26;20015;-56
2024/04/11 10:37:40;;;;;;;5.55;1.90;;;23.80;85.30;;;;;;4477067;26;20084;-53